createdAt,value
2023-04-12T00:00:42.048Z,5.08
2023-04-12T00:03:11.153Z,5.07
2023-04-12T00:05:38.969Z,5.06
2023-04-12T00:08:06.796Z,5.08
2023-04-12T00:10:34.459Z,4.98
2023-04-12T00:13:02.129Z,4.96
2023-04-12T00:15:29.798Z,4.97
2023-04-12T00:17:57.569Z,4.93
2023-04-12T00:20:27.181Z,4.88
2023-04-12T00:22:54.799Z,4.87
2023-04-12T00:25:22.391Z,4.92
2023-04-12T00:27:50.003Z,4.89
2023-04-12T00:30:17.598Z,4.88
2023-04-12T00:32:45.310Z,4.91
2023-04-12T00:35:13.016Z,4.95
2023-04-12T00:37:42.028Z,4.99
2023-04-12T00:40:10.757Z,5.00
2023-04-12T00:42:39.019Z,4.98
2023-04-12T00:45:08.261Z,4.95
2023-04-12T00:47:36.831Z,4.98
2023-04-12T00:50:05.898Z,4.97
2023-04-12T00:52:34.525Z,4.98
2023-04-12T00:55:04.567Z,4.96
2023-04-12T00:57:36.566Z,4.95
2023-04-12T01:00:05.360Z,4.98
2023-04-12T01:02:33.457Z,4.99
2023-04-12T01:05:01.400Z,4.98
2023-04-12T01:07:39.069Z,5.00
2023-04-12T01:10:11.208Z,5.03
2023-04-12T01:12:40.933Z,5.07
2023-04-12T01:15:11.165Z,5.11
2023-04-12T01:17:41.919Z,5.09
2023-04-12T01:20:17.101Z,5.11
2023-04-12T01:23:19.079Z,5.04
2023-04-12T01:26:01.075Z,5.01
2023-04-12T01:28:34.131Z,4.98
2023-04-12T01:31:02.555Z,4.97
2023-04-12T01:33:31.605Z,5.04
2023-04-12T01:36:00.901Z,5.08
2023-04-12T01:38:29.064Z,5.07
2023-04-12T01:40:56.974Z,5.06
2023-04-12T01:43:24.719Z,5.03
2023-04-12T01:45:53.757Z,5.06
2023-04-12T01:48:21.963Z,5.06
2023-04-12T01:50:59.704Z,5.03
2023-04-12T01:53:32.844Z,5.03
2023-04-12T01:56:05.676Z,5.02
2023-04-12T01:58:33.362Z,4.98
2023-04-12T02:01:02.970Z,4.96
2023-04-12T02:03:31.600Z,4.87
2023-04-12T02:06:00.829Z,4.88
2023-04-12T02:08:28.640Z,4.87
2023-04-12T02:10:56.256Z,4.81
2023-04-12T02:13:24.626Z,4.67
2023-04-12T02:15:54.481Z,4.65
2023-04-12T02:18:24.382Z,4.67
2023-04-12T02:20:52.001Z,4.62
2023-04-12T02:23:19.630Z,4.59
2023-04-12T02:25:47.469Z,4.53
2023-04-12T02:28:15.125Z,4.49
2023-04-12T02:30:42.808Z,4.48
2023-04-12T02:33:11.838Z,4.49
2023-04-12T02:35:40.944Z,4.55
2023-04-12T02:38:09.168Z,4.59
2023-04-12T02:40:40.717Z,4.57
2023-04-12T02:43:08.824Z,4.59
2023-04-12T02:45:36.471Z,4.57
2023-04-12T02:48:05.406Z,4.57
2023-04-12T02:50:33.110Z,4.52
2023-04-12T02:53:02.055Z,4.55
2023-04-12T02:55:30.574Z,4.57
2023-04-12T02:57:58.357Z,4.56
2023-04-12T03:00:26.384Z,4.51
2023-04-12T03:02:54.222Z,4.47
2023-04-12T03:05:22.059Z,4.51
2023-04-12T03:07:50.076Z,4.50
2023-04-12T03:10:19.077Z,4.49
2023-04-12T03:12:46.718Z,4.48
2023-04-12T03:15:14.397Z,4.50
2023-04-12T03:17:42.966Z,4.46
2023-04-12T03:20:10.933Z,4.42
2023-04-12T03:22:38.637Z,4.43
2023-04-12T03:25:07.120Z,4.39
2023-04-12T03:27:36.139Z,4.33
2023-04-12T03:30:04.074Z,4.32
2023-04-12T03:32:31.707Z,4.35
2023-04-12T03:35:00.318Z,4.34
2023-04-12T03:37:28.026Z,4.29
2023-04-12T03:39:55.693Z,4.31
2023-04-12T03:42:33.030Z,4.25
2023-04-12T03:45:02.722Z,4.24
2023-04-12T03:47:30.606Z,4.27
2023-04-12T03:50:11.422Z,4.29
2023-04-12T03:52:40.488Z,4.31
2023-04-12T03:55:08.810Z,4.31
2023-04-12T03:57:36.611Z,4.33
2023-04-12T04:00:08.534Z,4.34
2023-04-12T04:02:36.756Z,4.33
2023-04-12T04:05:04.995Z,4.34
2023-04-12T04:07:33.048Z,4.41
2023-04-12T04:10:01.063Z,4.44
2023-04-12T04:12:28.881Z,4.44
2023-04-12T04:14:56.520Z,4.41
2023-04-12T04:17:25.503Z,4.40
2023-04-12T04:19:53.196Z,4.37
2023-04-12T04:22:21.582Z,4.38
2023-04-12T04:24:50.191Z,4.39
2023-04-12T04:27:17.786Z,4.42
2023-04-12T04:29:45.594Z,4.40
2023-04-12T04:32:13.671Z,4.39
2023-04-12T04:34:43.519Z,4.42
2023-04-12T04:37:12.366Z,4.45
2023-04-12T04:39:40.126Z,4.51
2023-04-12T04:42:07.834Z,4.52
2023-04-12T04:44:37.274Z,4.49
2023-04-12T04:47:06.756Z,4.53
2023-04-12T04:49:34.544Z,4.56
2023-04-12T04:52:04.126Z,4.45
2023-04-12T04:54:33.186Z,4.47
2023-04-12T04:57:01.670Z,4.49
2023-04-12T04:59:29.360Z,4.44
2023-04-12T05:01:56.942Z,4.50
2023-04-12T05:04:24.770Z,4.55
2023-04-12T05:06:53.711Z,4.57
2023-04-12T05:09:22.759Z,4.54
2023-04-12T05:11:50.733Z,4.53
2023-04-12T05:14:18.403Z,4.53
2023-04-12T05:16:46.088Z,4.55
2023-04-12T05:19:13.850Z,4.60
2023-04-12T05:21:41.500Z,4.58
2023-04-12T05:24:09.654Z,4.57
2023-04-12T05:26:38.642Z,4.55
2023-04-12T05:29:06.510Z,4.54
2023-04-12T05:31:34.136Z,4.48
2023-04-12T05:34:01.758Z,4.53
2023-04-12T05:36:29.414Z,4.56
2023-04-12T05:38:57.480Z,4.56
2023-04-12T05:41:25.310Z,4.54
2023-04-12T05:43:54.348Z,4.52
2023-04-12T05:46:21.983Z,4.58
2023-04-12T05:48:49.632Z,4.62
2023-04-12T05:51:19.487Z,4.60
2023-04-12T05:53:50.633Z,4.60
2023-04-12T05:56:18.262Z,4.64
2023-04-12T05:58:47.193Z,4.63
2023-04-12T06:01:19.351Z,4.66
2023-04-12T06:03:46.962Z,4.71
2023-04-12T06:06:15.512Z,4.69
2023-04-12T06:08:43.239Z,4.68
2023-04-12T06:11:12.159Z,4.67
2023-04-12T06:13:40.426Z,4.72
2023-04-12T06:16:08.581Z,4.76
2023-04-12T06:18:37.670Z,4.80
2023-04-12T06:21:05.969Z,4.82
2023-04-12T06:23:33.608Z,4.80
2023-04-12T06:26:01.240Z,4.82
2023-04-12T06:28:28.897Z,4.85
2023-04-12T06:30:56.732Z,4.88
2023-04-12T06:33:24.447Z,4.91
2023-04-12T06:35:53.480Z,4.89
2023-04-12T06:38:21.190Z,4.92
2023-04-12T06:40:48.936Z,5.03
2023-04-12T06:43:19.098Z,5.03
2023-04-12T06:45:47.027Z,5.06
2023-04-12T06:48:14.672Z,5.09
2023-04-12T06:50:42.375Z,5.16
2023-04-12T06:53:13.429Z,5.17
2023-04-12T06:55:41.142Z,5.26
2023-04-12T06:58:08.775Z,5.29
2023-04-12T07:00:36.607Z,5.34
2023-04-12T07:03:04.400Z,5.42
2023-04-12T07:05:32.100Z,5.52
2023-04-12T07:07:59.746Z,5.62
2023-04-12T07:10:28.766Z,5.68
2023-04-12T07:12:57.496Z,5.64
2023-04-12T07:15:25.198Z,5.67
2023-04-12T07:17:52.844Z,5.73
2023-04-12T07:20:20.479Z,5.75
2023-04-12T07:22:48.083Z,5.78
2023-04-12T07:25:15.836Z,5.69
2023-04-12T07:27:44.802Z,5.72
2023-04-12T07:30:13.576Z,5.79
2023-04-12T07:32:41.333Z,5.93
2023-04-12T07:35:09.778Z,6.05
2023-04-12T07:37:38.965Z,6.16
2023-04-12T07:40:07.893Z,6.18
2023-04-12T07:42:35.530Z,6.25
2023-04-12T07:45:04.763Z,6.29
2023-04-12T07:47:32.830Z,6.29
2023-04-12T07:50:00.670Z,6.31
2023-04-12T07:52:28.341Z,6.37
2023-04-12T07:54:56.117Z,6.44
2023-04-12T07:57:24.292Z,6.37
2023-04-12T07:59:51.950Z,6.36
2023-04-12T08:02:26.063Z,6.35
2023-04-12T08:04:54.161Z,6.40
2023-04-12T08:07:22.373Z,6.50
2023-04-12T08:09:50.972Z,6.53
2023-04-12T08:12:18.620Z,6.58
2023-04-12T08:14:46.354Z,6.59
2023-04-12T08:17:14.024Z,6.57
2023-04-12T08:19:43.068Z,6.67
2023-04-12T08:22:13.129Z,6.62
2023-04-12T08:24:41.517Z,6.65
2023-04-12T08:27:09.202Z,6.73
2023-04-12T08:29:36.831Z,6.71
2023-04-12T08:32:05.218Z,6.77
2023-04-12T08:34:33.115Z,6.83
2023-04-12T08:37:02.117Z,6.84
2023-04-12T08:39:29.736Z,6.80
2023-04-12T08:41:58.172Z,6.55
2023-04-12T08:44:37.012Z,6.70
2023-04-12T08:47:05.900Z,6.78
2023-04-12T08:49:35.048Z,6.90
2023-04-12T08:52:05.647Z,7.01
2023-04-12T08:54:33.570Z,7.13
2023-04-12T08:57:02.707Z,7.14
2023-04-12T08:59:31.320Z,7.26
2023-04-12T09:01:59.740Z,7.40
2023-04-12T09:04:27.559Z,7.39
2023-04-12T09:06:55.300Z,7.43
2023-04-12T09:09:41.566Z,7.68
2023-04-12T09:12:10.490Z,7.68
2023-04-12T09:14:39.390Z,7.77
2023-04-12T09:17:07.137Z,7.91
2023-04-12T09:19:35.954Z,8.11
2023-04-12T09:22:03.952Z,8.22
2023-04-12T09:24:32.028Z,8.27
2023-04-12T09:27:06.124Z,8.30
2023-04-12T09:29:34.631Z,8.47
2023-04-12T09:32:04.068Z,8.52
2023-04-12T09:34:32.121Z,8.50
2023-04-12T09:37:00.094Z,8.71
2023-04-12T09:39:34.562Z,8.94
2023-04-12T09:42:18.006Z,9.02
2023-04-12T09:44:54.512Z,9.18
2023-04-12T09:47:22.414Z,9.32
2023-04-12T09:49:50.170Z,9.55
2023-04-12T09:52:17.785Z,9.86
2023-04-12T09:54:46.762Z,10.12
2023-04-12T09:57:18.146Z,10.30
2023-04-12T09:59:49.941Z,10.33
2023-04-12T10:02:19.577Z,10.45
2023-04-12T10:04:49.492Z,10.60
2023-04-12T10:07:17.561Z,10.93
2023-04-12T10:09:45.336Z,11.04
2023-04-12T10:12:12.981Z,11.04
2023-04-12T10:14:43.403Z,11.22
2023-04-12T10:17:12.049Z,11.09
2023-04-12T10:19:40.780Z,11.25
2023-04-12T10:22:08.408Z,11.43
2023-04-12T10:24:36.386Z,11.58
2023-04-12T10:27:04.600Z,11.74
2023-04-12T10:29:34.524Z,11.94
2023-04-12T10:32:21.703Z,12.19
2023-04-12T10:34:53.315Z,12.42
2023-04-12T10:37:21.259Z,12.58
2023-04-12T10:39:53.945Z,12.76
2023-04-12T10:42:24.181Z,12.86
2023-04-12T10:44:53.015Z,12.89
2023-04-12T10:48:03.876Z,12.81
2023-04-12T10:50:32.602Z,12.81
2023-04-12T10:53:22.808Z,12.98
2023-04-12T10:55:50.644Z,13.00
2023-04-12T10:58:55.840Z,13.06
2023-04-12T11:01:23.725Z,12.85
2023-04-12T11:04:10.442Z,13.10
2023-04-12T11:06:59.903Z,13.31
2023-04-12T11:09:29.383Z,13.53
2023-04-12T11:12:13.354Z,13.49
2023-04-12T11:14:45.840Z,13.55
2023-04-12T11:17:27.065Z,13.57
2023-04-12T11:19:58.758Z,13.58
2023-04-12T11:22:28.783Z,13.71
2023-04-12T11:24:57.999Z,13.69
2023-04-12T11:27:26.960Z,13.84
2023-04-12T11:29:56.617Z,13.96
2023-04-12T11:32:26.544Z,14.05
2023-04-12T11:34:56.579Z,14.26
2023-04-12T11:37:26.761Z,14.27
2023-04-12T11:39:56.860Z,14.30
2023-04-12T11:42:25.757Z,14.41
2023-04-12T11:44:57.721Z,14.49
2023-04-12T11:47:28.530Z,14.62
2023-04-12T11:49:59.092Z,14.59
2023-04-12T11:52:30.360Z,14.56
2023-04-12T11:55:00.067Z,14.61
2023-04-12T11:57:28.954Z,14.49
2023-04-12T11:59:58.523Z,14.70
2023-04-12T12:02:30.280Z,15.00
2023-04-12T12:05:01.275Z,14.99
2023-04-12T12:07:29.786Z,14.99
2023-04-12T12:09:57.813Z,15.02
2023-04-12T12:12:26.025Z,15.00
2023-04-12T12:14:53.659Z,14.82
2023-04-12T12:17:21.298Z,14.95
2023-04-12T12:19:48.975Z,15.19
2023-04-12T12:22:19.161Z,15.24
2023-04-12T12:24:52.528Z,15.23
2023-04-12T12:27:21.726Z,15.37
2023-04-12T12:29:54.344Z,15.40
2023-04-12T12:32:23.525Z,15.00
2023-04-12T12:34:53.154Z,14.85
2023-04-12T12:37:31.772Z,14.86
2023-04-12T12:40:07.272Z,14.97
2023-04-12T12:42:35.939Z,15.16
2023-04-12T12:45:04.421Z,15.22
2023-04-12T12:47:32.495Z,15.16
2023-04-12T12:50:00.222Z,15.24
2023-04-12T12:52:27.855Z,15.32
2023-04-12T12:54:56.881Z,15.19
2023-04-12T12:57:24.501Z,15.12
2023-04-12T12:59:52.182Z,15.28
2023-04-12T13:02:19.922Z,15.31
2023-04-12T13:04:47.857Z,15.43
2023-04-12T13:07:15.622Z,15.43
2023-04-12T13:09:43.293Z,15.43
2023-04-12T13:12:15.117Z,15.40
2023-04-12T13:14:42.895Z,15.37
2023-04-12T13:17:10.517Z,15.38
2023-04-12T13:19:38.192Z,15.27
2023-04-12T13:22:07.351Z,15.31
2023-04-12T13:24:35.927Z,15.43
2023-04-12T13:27:03.777Z,15.33
2023-04-12T13:29:32.855Z,15.40
2023-04-12T13:32:00.582Z,15.43
2023-04-12T13:34:28.278Z,15.35
2023-04-12T13:36:55.914Z,15.34
2023-04-12T13:39:23.583Z,15.30
2023-04-12T13:41:51.508Z,15.31
2023-04-12T13:44:19.178Z,15.14
2023-04-12T13:46:48.124Z,15.09
2023-04-12T13:49:15.935Z,15.06
2023-04-12T13:51:43.575Z,15.11
2023-04-12T13:54:11.180Z,15.18
2023-04-12T13:56:38.797Z,15.14
2023-04-12T13:59:06.489Z,15.24
2023-04-12T14:01:34.141Z,14.72
2023-04-12T14:04:03.976Z,14.78
2023-04-12T14:06:32.429Z,15.00
2023-04-12T14:09:00.310Z,15.12
2023-04-12T14:11:27.935Z,15.25
2023-04-12T14:13:55.734Z,14.62
2023-04-12T14:16:23.344Z,14.82
2023-04-12T14:18:50.924Z,14.98
2023-04-12T14:21:19.818Z,15.04
2023-04-12T14:23:47.379Z,15.15
2023-04-12T14:26:17.041Z,15.19
2023-04-12T14:28:44.744Z,15.22
2023-04-12T14:31:14.769Z,15.19
2023-04-12T14:33:42.519Z,15.28
2023-04-12T14:36:10.840Z,15.19
2023-04-12T14:38:39.814Z,15.17
2023-04-12T14:41:08.574Z,15.08
2023-04-12T14:43:36.300Z,15.04
2023-04-12T14:46:03.933Z,14.87
2023-04-12T14:48:31.643Z,14.88
2023-04-12T14:50:59.245Z,14.72
2023-04-12T14:53:26.948Z,14.68
2023-04-12T14:55:55.914Z,14.60
2023-04-12T14:58:23.751Z,14.58
2023-04-12T15:00:51.446Z,14.37
2023-04-12T15:03:20.922Z,14.26
2023-04-12T15:05:49.139Z,14.26
2023-04-12T15:08:17.041Z,14.23
2023-04-12T15:10:44.719Z,14.09
2023-04-12T15:13:13.727Z,13.98
2023-04-12T15:15:41.721Z,13.87
2023-04-12T15:18:09.791Z,13.91
2023-04-12T15:20:38.163Z,13.93
2023-04-12T15:23:06.661Z,13.86
2023-04-12T15:25:34.368Z,13.71
2023-04-12T15:28:02.998Z,13.69
2023-04-12T15:30:32.684Z,13.68
2023-04-12T15:33:00.740Z,13.68
2023-04-12T15:35:28.489Z,13.66
2023-04-12T15:37:56.124Z,13.63
2023-04-12T15:40:24.293Z,13.61
2023-04-12T15:42:52.034Z,13.64
2023-04-12T15:45:19.664Z,13.60
2023-04-12T15:47:48.772Z,13.52
2023-04-12T15:50:16.515Z,13.43
2023-04-12T15:52:44.336Z,13.44
2023-04-12T15:55:12.687Z,13.47
2023-04-12T15:57:40.372Z,13.38
2023-04-12T16:00:20.916Z,13.39
2023-04-12T16:02:54.724Z,13.34
2023-04-12T16:05:22.728Z,13.36
2023-04-12T16:07:51.150Z,13.40
2023-04-12T16:10:20.999Z,13.42
2023-04-12T16:12:49.635Z,13.41
2023-04-12T16:15:18.098Z,13.45
2023-04-12T16:17:47.085Z,13.42
2023-04-12T16:20:21.428Z,13.44
2023-04-12T16:22:49.815Z,13.39
2023-04-12T16:25:17.896Z,13.31
2023-04-12T16:27:45.983Z,13.28
2023-04-12T16:30:15.633Z,13.24
2023-04-12T16:32:43.848Z,13.22
2023-04-12T16:35:11.743Z,13.18
2023-04-12T16:37:40.802Z,13.16
2023-04-12T16:40:10.457Z,13.15
2023-04-12T16:42:38.138Z,13.13
2023-04-12T16:45:07.164Z,13.01
2023-04-12T16:47:35.602Z,13.04
2023-04-12T16:50:03.866Z,13.05
2023-04-12T16:52:31.961Z,13.04
2023-04-12T16:55:01.066Z,13.00
2023-04-12T16:57:29.714Z,12.93
2023-04-12T16:59:57.630Z,12.91
2023-04-12T17:02:26.052Z,12.81
2023-04-12T17:04:53.939Z,12.83
2023-04-12T17:07:21.764Z,12.81
2023-04-12T17:09:49.397Z,12.70
2023-04-12T17:12:19.185Z,12.66
2023-04-12T17:14:47.349Z,12.66
2023-04-12T17:17:15.424Z,12.57
2023-04-12T17:19:44.721Z,12.56
2023-04-12T17:22:12.436Z,12.50
2023-04-12T17:24:40.912Z,12.42
2023-04-12T17:27:08.807Z,12.38
2023-04-12T17:29:38.350Z,12.33
2023-04-12T17:32:07.120Z,12.35
2023-04-12T17:34:35.084Z,12.31
2023-04-12T17:37:04.368Z,12.31
2023-04-12T17:39:32.174Z,12.26
2023-04-12T17:42:01.511Z,12.25
2023-04-12T17:44:29.281Z,12.30
2023-04-12T17:46:58.343Z,12.21
2023-04-12T17:49:26.416Z,12.15
2023-04-12T17:51:54.111Z,12.12
2023-04-12T17:54:22.251Z,12.00
2023-04-12T17:56:51.170Z,11.80
2023-04-12T17:59:21.939Z,11.56
2023-04-12T18:01:50.392Z,11.50
2023-04-12T18:04:20.061Z,11.36
2023-04-12T18:06:51.145Z,11.18
2023-04-12T18:09:20.215Z,11.15
2023-04-12T18:11:49.034Z,11.03
2023-04-12T18:14:18.311Z,10.83
2023-04-12T18:16:47.292Z,10.73
2023-04-12T18:19:19.261Z,10.69
2023-04-12T18:21:49.443Z,10.60
2023-04-12T18:24:17.397Z,10.58
2023-04-12T18:26:45.517Z,10.48
2023-04-12T18:29:15.844Z,10.40
2023-04-12T18:31:43.676Z,10.36
2023-04-12T18:34:11.668Z,10.26
2023-04-12T18:36:39.742Z,10.25
2023-04-12T18:39:08.900Z,10.11
2023-04-12T18:41:36.741Z,10.13
2023-04-12T18:44:04.695Z,10.08
2023-04-12T18:46:32.478Z,10.05
2023-04-12T18:49:00.211Z,10.07
2023-04-12T18:51:27.999Z,10.06
2023-04-12T18:53:55.664Z,10.07
2023-04-12T18:56:24.813Z,10.03
2023-04-12T18:58:55.451Z,10.03
2023-04-12T19:01:24.106Z,9.91
2023-04-12T19:03:52.293Z,9.91
2023-04-12T19:06:20.323Z,9.84
2023-04-12T19:08:49.624Z,9.79
2023-04-12T19:11:17.378Z,9.72
2023-04-12T19:13:46.639Z,9.61
2023-04-12T19:16:14.466Z,9.51
2023-04-12T19:18:42.192Z,9.52
2023-04-12T19:21:09.926Z,9.53
2023-04-12T19:23:38.124Z,9.52
2023-04-12T19:26:06.227Z,9.55
2023-04-12T19:28:33.936Z,9.41
2023-04-12T19:31:05.318Z,9.37
2023-04-12T19:33:32.979Z,9.40
2023-04-12T19:36:00.739Z,9.39
2023-04-12T19:38:29.104Z,9.33
2023-04-12T19:40:56.868Z,9.30
2023-04-12T19:43:25.674Z,9.31
2023-04-12T19:45:53.640Z,9.28
2023-04-12T19:48:23.188Z,9.21
2023-04-12T19:50:50.970Z,9.18
2023-04-12T19:53:18.926Z,9.16
2023-04-12T19:55:46.588Z,9.13
2023-04-12T19:58:14.374Z,9.10
2023-04-12T20:00:42.281Z,9.05
2023-04-12T20:03:10.305Z,9.00
2023-04-12T20:05:39.974Z,8.95
2023-04-12T20:08:07.728Z,8.89
2023-04-12T20:10:35.981Z,8.85
2023-04-12T20:13:04.826Z,8.77
2023-04-12T20:15:32.420Z,8.74
2023-04-12T20:18:00.137Z,8.71
2023-04-12T20:20:27.851Z,8.66
2023-04-12T20:22:58.878Z,8.66
2023-04-12T20:25:27.246Z,8.63
2023-04-12T20:27:54.890Z,8.65
2023-04-12T20:30:22.925Z,8.65
2023-04-12T20:32:54.182Z,8.62
2023-04-12T20:35:22.874Z,8.57
2023-04-12T20:37:51.242Z,8.52
2023-04-12T20:40:23.187Z,8.48
2023-04-12T20:42:51.515Z,8.56
2023-04-12T20:45:19.401Z,8.52
2023-04-12T20:47:47.145Z,8.53
2023-04-12T20:50:15.457Z,8.42
2023-04-12T20:52:43.107Z,8.27
2023-04-12T20:55:11.809Z,8.07
2023-04-12T20:57:41.092Z,8.21
2023-04-12T21:00:17.656Z,8.27
2023-04-12T21:02:46.784Z,8.30
2023-04-12T21:05:16.809Z,8.29
2023-04-12T21:07:46.764Z,8.23
2023-04-12T21:10:15.195Z,8.27
2023-04-12T21:12:45.040Z,8.23
2023-04-12T21:15:13.641Z,8.18
2023-04-12T21:17:41.625Z,8.07
2023-04-12T21:20:13.370Z,8.13
2023-04-12T21:22:43.156Z,8.12
2023-04-12T21:25:13.757Z,8.11
2023-04-12T21:27:42.737Z,8.10
2023-04-12T21:30:13.461Z,8.09
2023-04-12T21:32:44.149Z,8.07
2023-04-12T21:35:12.206Z,8.05
2023-04-12T21:37:40.370Z,8.00
2023-04-12T21:40:10.998Z,7.92
2023-04-12T21:42:39.199Z,7.94
2023-04-12T21:45:08.324Z,7.84
2023-04-12T21:47:37.802Z,7.88
2023-04-12T21:50:07.586Z,7.90
2023-04-12T21:52:35.323Z,7.92
2023-04-12T21:55:04.823Z,7.88
2023-04-12T21:57:32.720Z,7.79
2023-04-12T22:00:00.345Z,7.76
2023-04-12T22:02:28.428Z,7.72
2023-04-12T22:04:57.579Z,7.69
2023-04-12T22:07:25.304Z,7.71
2023-04-12T22:09:54.249Z,7.71
2023-04-12T22:12:22.918Z,7.72
2023-04-12T22:14:50.581Z,7.69
2023-04-12T22:17:18.849Z,7.71
2023-04-12T22:19:46.563Z,7.71
2023-04-12T22:22:16.101Z,7.63
2023-04-12T22:24:44.296Z,7.61
2023-04-12T22:27:11.956Z,7.60
2023-04-12T22:29:39.726Z,7.62
2023-04-12T22:32:08.857Z,7.60
2023-04-12T22:34:38.008Z,7.55
2023-04-12T22:37:07.158Z,7.33
2023-04-12T22:39:36.538Z,7.36
2023-04-12T22:42:06.384Z,7.32
2023-04-12T22:44:38.145Z,7.24
2023-04-12T22:47:07.462Z,7.23
2023-04-12T22:49:46.272Z,7.23
2023-04-12T22:52:13.939Z,7.05
2023-04-12T22:54:43.817Z,6.98
2023-04-12T22:57:12.661Z,7.04
2023-04-12T22:59:40.317Z,7.03
2023-04-12T23:02:08.269Z,7.03
2023-04-12T23:04:36.118Z,7.08
2023-04-12T23:07:04.772Z,7.02
2023-04-12T23:09:33.391Z,7.09
2023-04-12T23:12:04.355Z,7.17
2023-04-12T23:14:32.108Z,7.18
2023-04-12T23:17:01.012Z,7.19
2023-04-12T23:19:28.980Z,7.18
2023-04-12T23:21:56.628Z,7.20
2023-04-12T23:24:25.068Z,7.19
2023-04-12T23:26:52.729Z,7.19
2023-04-12T23:29:21.893Z,7.19
2023-04-12T23:31:49.625Z,7.20
2023-04-12T23:34:18.882Z,7.11
2023-04-12T23:36:46.517Z,7.07
2023-04-12T23:39:14.144Z,7.01
2023-04-12T23:41:41.989Z,7.01
2023-04-12T23:44:09.624Z,6.95
2023-04-12T23:46:38.747Z,6.92
2023-04-12T23:49:06.839Z,6.89
2023-04-12T23:51:34.540Z,6.77
2023-04-12T23:54:02.232Z,6.27
2023-04-12T23:56:29.970Z,6.27
2023-04-12T23:58:57.605Z,6.38
